createdAt,value
2023-01-23T00:01:30.954Z,216.20
2023-01-23T00:03:59.148Z,212.10
2023-01-23T00:06:27.222Z,196.90
2023-01-23T00:08:56.736Z,234.50
2023-01-23T00:11:27.013Z,220.40
2023-01-23T00:13:54.762Z,223.70
2023-01-23T00:16:25.291Z,203.20
2023-01-23T00:18:53.822Z,229.60
2023-01-23T00:21:24.072Z,183.30
2023-01-23T00:23:54.803Z,192.60
2023-01-23T00:26:25.869Z,194.50
2023-01-23T00:28:54.210Z,210.20
2023-01-23T00:31:25.267Z,210.70
2023-01-23T00:33:58.271Z,223.10
2023-01-23T00:36:37.618Z,202.80
2023-01-23T00:39:08.762Z,224.70
2023-01-23T00:41:36.391Z,259.30
2023-01-23T00:44:05.241Z,250.10
2023-01-23T00:46:34.901Z,222.00
2023-01-23T00:49:03.594Z,263.60
2023-01-23T00:51:31.535Z,248.30
2023-01-23T00:53:59.563Z,294.40
2023-01-23T00:56:28.128Z,248.50
2023-01-23T00:58:56.024Z,236.80
2023-01-23T01:01:23.924Z,224.20
2023-01-23T01:03:51.875Z,261.80
2023-01-23T01:06:19.579Z,221.70
2023-01-23T01:08:47.815Z,182.70
2023-01-23T01:11:15.888Z,276.70
2023-01-23T01:13:44.673Z,243.60
2023-01-23T01:16:13.193Z,195.20
2023-01-23T01:18:41.323Z,178.20
2023-01-23T01:21:11.625Z,247.00
2023-01-23T01:23:39.977Z,242.40
2023-01-23T01:26:08.348Z,241.80
2023-01-23T01:28:38.162Z,234.50
2023-01-23T01:31:08.423Z,222.90
2023-01-23T01:33:38.181Z,258.50
2023-01-23T01:36:13.503Z,288.90
2023-01-23T01:38:41.375Z,255.10
2023-01-23T01:41:09.451Z,201.20
2023-01-23T01:43:37.212Z,273.90
2023-01-23T01:46:20.572Z,270.10
2023-01-23T01:48:57.494Z,314.70
2023-01-23T01:51:34.065Z,216.00
2023-01-23T01:54:32.498Z,212.80
2023-01-23T01:57:24.539Z,222.50
2023-01-23T01:59:57.140Z,205.00
2023-01-23T02:02:32.479Z,212.40
2023-01-23T02:05:06.245Z,232.30
2023-01-23T02:07:36.811Z,201.50
2023-01-23T02:10:06.438Z,190.00
2023-01-23T02:12:35.416Z,236.90
2023-01-23T02:15:06.182Z,216.80
2023-01-23T02:17:35.664Z,198.50
2023-01-23T02:20:20.306Z,218.10
2023-01-23T02:23:07.137Z,249.20
2023-01-23T02:25:43.958Z,266.30
2023-01-23T02:28:15.065Z,240.50
2023-01-23T02:30:47.019Z,274.90
2023-01-23T02:33:22.198Z,299.70
2023-01-23T02:35:51.322Z,292.90
2023-01-23T02:38:23.176Z,282.80
2023-01-23T02:40:55.111Z,298.30
2023-01-23T02:43:28.421Z,257.90
2023-01-23T02:46:02.394Z,266.20
2023-01-23T02:48:30.539Z,247.20
2023-01-23T02:51:00.866Z,294.10
2023-01-23T02:53:30.614Z,249.40
2023-01-23T02:56:00.035Z,275.60
2023-01-23T02:58:46.581Z,189.30
2023-01-23T03:01:14.312Z,330.20
2023-01-23T03:03:42.498Z,276.00
2023-01-23T03:06:11.566Z,271.80
2023-01-23T03:08:48.239Z,249.50
2023-01-23T03:11:18.405Z,289.90
2023-01-23T03:13:47.205Z,293.80
2023-01-23T03:16:15.443Z,222.60
2023-01-23T03:18:53.938Z,357.30
2023-01-23T03:21:22.480Z,357.20
2023-01-23T03:23:50.785Z,266.50
2023-01-23T03:26:18.847Z,290.80
2023-01-23T03:29:07.883Z,308.50
2023-01-23T03:31:36.092Z,291.10
2023-01-23T03:34:04.302Z,277.90
2023-01-23T03:36:37.296Z,301.40
2023-01-23T03:39:25.398Z,313.90
2023-01-23T03:41:54.024Z,199.10
2023-01-23T03:44:22.377Z,229.30
2023-01-23T03:46:51.837Z,251.30
2023-01-23T03:49:20.159Z,239.90
2023-01-23T03:51:51.135Z,235.60
2023-01-23T03:54:18.954Z,219.90
2023-01-23T03:56:46.656Z,254.20
2023-01-23T03:59:29.844Z,231.00
2023-01-23T04:01:58.137Z,240.10
2023-01-23T04:04:26.236Z,244.30
2023-01-23T04:06:53.975Z,283.00
2023-01-23T04:09:27.487Z,295.10
2023-01-23T04:12:00.215Z,255.90
2023-01-23T04:14:30.531Z,292.20
2023-01-23T04:16:59.312Z,296.10
2023-01-23T04:19:27.031Z,261.80
2023-01-23T04:21:54.755Z,283.60
2023-01-23T04:24:22.530Z,272.00
2023-01-23T04:26:50.732Z,244.20
2023-01-23T04:29:18.554Z,261.20
2023-01-23T04:31:46.404Z,214.20
2023-01-23T04:34:14.494Z,255.20
2023-01-23T04:36:42.458Z,274.30
2023-01-23T04:39:10.198Z,266.80
2023-01-23T04:41:38.270Z,220.20
2023-01-23T04:44:22.006Z,246.80
2023-01-23T04:47:12.242Z,234.70
2023-01-23T04:49:40.686Z,262.30
2023-01-23T04:52:08.392Z,263.20
2023-01-23T04:54:38.678Z,269.20
2023-01-23T04:57:06.424Z,292.50
2023-01-23T04:59:34.542Z,232.40
2023-01-23T05:02:02.677Z,290.50
2023-01-23T05:04:35.351Z,248.50
2023-01-23T05:07:03.062Z,292.00
2023-01-23T05:09:31.455Z,291.40
2023-01-23T05:11:59.393Z,271.00
2023-01-23T05:14:27.463Z,268.20
2023-01-23T05:16:56.015Z,312.10
2023-01-23T05:19:31.807Z,305.30
2023-01-23T05:22:01.599Z,298.60
2023-01-23T05:24:29.389Z,306.20
2023-01-23T05:26:57.458Z,259.80
2023-01-23T05:29:26.031Z,275.70
2023-01-23T05:32:04.493Z,261.20
2023-01-23T05:34:38.055Z,227.50
2023-01-23T05:37:13.131Z,225.90
2023-01-23T05:39:41.285Z,246.60
2023-01-23T05:42:08.931Z,342.90
2023-01-23T05:45:00.799Z,246.80
2023-01-23T05:47:37.499Z,266.40
2023-01-23T05:50:08.095Z,264.30
2023-01-23T05:52:36.710Z,283.10
2023-01-23T05:55:04.910Z,273.20
2023-01-23T05:57:34.223Z,284.60
2023-01-23T06:00:25.171Z,234.60
2023-01-23T06:03:18.943Z,268.80
2023-01-23T06:06:01.734Z,329.90
2023-01-23T06:08:29.712Z,198.70
2023-01-23T06:11:01.151Z,329.10
2023-01-23T06:13:29.270Z,225.90
2023-01-23T06:15:57.405Z,228.90
2023-01-23T06:18:25.984Z,244.00
2023-01-23T06:20:59.796Z,169.00
2023-01-23T06:23:28.503Z,236.50
2023-01-23T06:26:00.966Z,266.00
2023-01-23T06:28:29.093Z,306.40
2023-01-23T06:31:01.954Z,283.60
2023-01-23T06:33:38.978Z,249.30
2023-01-23T06:36:09.341Z,273.60
2023-01-23T06:38:39.070Z,267.10
2023-01-23T06:41:09.655Z,276.60
2023-01-23T06:43:40.212Z,232.60
2023-01-23T06:46:12.155Z,318.50
2023-01-23T06:48:39.899Z,252.60
2023-01-23T06:51:07.708Z,253.50
2023-01-23T06:53:35.597Z,168.30
2023-01-23T06:56:07.546Z,271.50
2023-01-23T06:58:38.790Z,346.40
2023-01-23T07:01:11.673Z,244.50
2023-01-23T07:03:58.124Z,240.90
2023-01-23T07:06:26.289Z,284.80
2023-01-23T07:08:54.027Z,283.60
2023-01-23T07:11:21.777Z,265.40
2023-01-23T07:13:49.443Z,231.90
2023-01-23T07:16:17.239Z,267.80
2023-01-23T07:18:45.545Z,246.10
2023-01-23T07:21:13.616Z,274.40
2023-01-23T07:23:41.375Z,270.30
2023-01-23T07:26:10.213Z,275.80
2023-01-23T07:28:38.748Z,291.40
2023-01-23T07:31:06.906Z,276.20
2023-01-23T07:33:35.260Z,242.60
2023-01-23T07:36:06.932Z,316.30
2023-01-23T07:38:34.689Z,196.50
2023-01-23T07:41:02.369Z,278.60
2023-01-23T07:43:30.067Z,272.90
2023-01-23T07:46:01.595Z,269.80
2023-01-23T07:48:29.458Z,281.50
2023-01-23T07:50:57.232Z,281.40
2023-01-23T07:53:25.051Z,241.20
2023-01-23T07:55:52.672Z,300.60
2023-01-23T07:58:20.320Z,291.10
2023-01-23T08:00:48.049Z,250.70
2023-01-23T08:03:15.727Z,277.80
2023-01-23T08:05:48.615Z,227.50
2023-01-23T08:08:16.826Z,334.40
2023-01-23T08:10:44.585Z,301.90
2023-01-23T08:13:12.263Z,299.90
2023-01-23T08:15:40.139Z,259.30
2023-01-23T08:18:08.108Z,224.80
2023-01-23T08:20:35.744Z,286.20
2023-01-23T08:23:03.498Z,228.30
2023-01-23T08:25:31.675Z,262.90
2023-01-23T08:27:59.460Z,221.50
2023-01-23T08:30:27.431Z,210.30
2023-01-23T08:32:55.356Z,300.70
2023-01-23T08:35:23.315Z,264.00
2023-01-23T08:37:51.234Z,228.20
2023-01-23T08:40:19.387Z,260.40
2023-01-23T08:42:47.921Z,246.50
2023-01-23T08:45:15.850Z,396.80
2023-01-23T08:47:43.878Z,389.30
2023-01-23T08:50:12.358Z,298.80
2023-01-23T08:52:40.332Z,229.40
2023-01-23T08:55:09.181Z,239.70
2023-01-23T08:57:36.939Z,275.70
2023-01-23T09:00:05.110Z,237.50
2023-01-23T09:02:32.844Z,235.40
2023-01-23T09:05:00.965Z,268.80
2023-01-23T09:07:28.782Z,284.20
2023-01-23T09:09:56.444Z,219.10
2023-01-23T09:12:24.220Z,233.40
2023-01-23T09:14:51.902Z,191.30
2023-01-23T09:17:19.584Z,232.70
2023-01-23T09:19:47.245Z,268.50
2023-01-23T09:22:16.443Z,249.30
2023-01-23T09:24:44.239Z,243.30
2023-01-23T09:27:11.938Z,230.50
2023-01-23T09:29:39.597Z,242.70
2023-01-23T09:32:07.235Z,234.30
2023-01-23T09:34:34.896Z,223.70
2023-01-23T09:37:02.640Z,245.00
2023-01-23T09:39:30.305Z,223.10
2023-01-23T09:41:59.691Z,212.60
2023-01-23T09:44:38.440Z,259.90
2023-01-23T09:47:14.308Z,321.80
2023-01-23T09:49:47.315Z,331.70
2023-01-23T09:52:19.082Z,383.60
2023-01-23T09:54:50.261Z,221.80
2023-01-23T09:57:35.720Z,227.10
2023-01-23T10:00:11.126Z,297.00
2023-01-23T10:02:44.596Z,274.40
2023-01-23T10:05:15.666Z,328.40
2023-01-23T10:07:59.529Z,277.60
2023-01-23T10:10:56.747Z,264.00
2023-01-23T10:13:33.992Z,201.80
2023-01-23T10:16:35.398Z,155.30
2023-01-23T10:19:30.532Z,204.00
2023-01-23T10:22:02.038Z,238.70
2023-01-23T10:24:58.765Z,198.60
2023-01-23T10:27:34.023Z,193.10
2023-01-23T10:30:22.008Z,206.30
2023-01-23T10:33:02.013Z,206.00
2023-01-23T10:35:53.118Z,203.70
2023-01-23T10:38:49.933Z,174.50
2023-01-23T10:41:21.772Z,141.10
2023-01-23T10:43:52.641Z,155.70
2023-01-23T10:46:39.610Z,191.10
2023-01-23T10:49:07.406Z,179.50
2023-01-23T10:51:46.743Z,175.60
2023-01-23T10:54:30.257Z,157.80
2023-01-23T10:57:03.149Z,125.30
2023-01-23T10:59:41.410Z,125.60
2023-01-23T11:02:15.817Z,144.40
2023-01-23T11:04:46.715Z,119.60
2023-01-23T11:07:17.245Z,122.00
2023-01-23T11:10:05.371Z,120.90
2023-01-23T11:12:34.907Z,112.60
2023-01-23T11:15:29.934Z,196.30
2023-01-23T11:18:00.372Z,178.50
2023-01-23T11:20:39.891Z,200.60
2023-01-23T11:23:13.506Z,183.40
2023-01-23T11:25:42.596Z,199.10
2023-01-23T11:28:34.706Z,249.10
2023-01-23T11:31:15.865Z,196.20
2023-01-23T11:34:09.183Z,149.70
2023-01-23T11:37:14.159Z,278.90
2023-01-23T11:40:07.816Z,166.50
2023-01-23T11:42:40.260Z,189.20
2023-01-23T11:45:29.228Z,199.80
2023-01-23T11:48:10.043Z,214.50
2023-01-23T11:50:56.501Z,145.80
2023-01-23T11:53:54.931Z,138.90
2023-01-23T11:56:44.304Z,145.40
2023-01-23T11:59:37.226Z,206.00
2023-01-23T12:02:39.438Z,244.40
2023-01-23T12:05:29.777Z,239.80
2023-01-23T12:08:09.463Z,233.40
2023-01-23T12:10:55.906Z,187.50
2023-01-23T12:13:53.122Z,243.90
2023-01-23T12:16:28.173Z,210.80
2023-01-23T12:19:21.356Z,166.90
2023-01-23T12:21:58.108Z,170.50
2023-01-23T12:24:47.054Z,158.10
2023-01-23T12:27:17.433Z,182.90
2023-01-23T12:29:47.869Z,201.20
2023-01-23T12:32:33.226Z,220.10
2023-01-23T12:35:03.584Z,186.20
2023-01-23T12:38:16.187Z,244.80
2023-01-23T12:40:50.418Z,252.30
2023-01-23T12:43:40.360Z,190.50
2023-01-23T12:46:16.187Z,217.40
2023-01-23T12:48:54.447Z,187.90
2023-01-23T12:51:27.156Z,331.50
2023-01-23T12:53:57.669Z,230.60
2023-01-23T12:56:34.056Z,185.10
2023-01-23T12:59:10.501Z,213.60
2023-01-23T13:02:11.304Z,189.20
2023-01-23T13:04:47.060Z,289.70
2023-01-23T13:07:38.121Z,258.20
2023-01-23T13:10:54.385Z,200.70
2023-01-23T13:13:22.439Z,238.20
2023-01-23T13:16:11.916Z,227.20
2023-01-23T13:18:58.973Z,361.80
2023-01-23T13:21:45.460Z,403.20
2023-01-23T13:24:51.977Z,359.30
2023-01-23T13:27:39.996Z,384.50
2023-01-23T13:30:26.096Z,402.50
2023-01-23T13:32:56.460Z,372.30
2023-01-23T13:35:47.680Z,377.50
2023-01-23T13:38:21.433Z,263.20
2023-01-23T13:41:04.749Z,408.30
2023-01-23T13:43:50.573Z,390.00
2023-01-23T14:24:21.912Z,269.40
2023-01-23T14:26:52.340Z,207.90
2023-01-23T14:29:25.119Z,293.20
2023-01-23T14:31:53.649Z,303.40
2023-01-23T14:34:23.467Z,322.50
2023-01-23T14:36:53.606Z,362.00
2023-01-23T14:39:23.829Z,343.40
2023-01-23T14:41:54.345Z,326.70
2023-01-23T14:44:42.555Z,352.70
2023-01-23T14:47:16.506Z,343.50
2023-01-23T14:49:47.171Z,401.00
2023-01-23T14:52:24.769Z,310.90
2023-01-23T14:54:54.477Z,257.30
2023-01-23T14:57:24.167Z,380.70
2023-01-23T14:59:56.742Z,333.90
2023-01-23T15:02:26.330Z,251.80
2023-01-23T15:05:12.688Z,300.90
2023-01-23T15:07:59.181Z,293.20
2023-01-23T15:10:32.639Z,274.90
2023-01-23T15:13:05.045Z,280.90
2023-01-23T15:15:34.576Z,296.20
2023-01-23T15:18:05.815Z,262.30
2023-01-23T15:20:41.055Z,305.70
2023-01-23T15:23:17.804Z,319.80
2023-01-23T15:25:51.721Z,282.50
2023-01-23T15:28:37.782Z,237.00
2023-01-23T15:31:06.042Z,240.60
2023-01-23T15:33:40.227Z,222.70
2023-01-23T15:36:23.383Z,261.80
2023-01-23T15:38:51.281Z,277.90
2023-01-23T15:41:26.877Z,277.90
2023-01-23T15:44:02.041Z,267.00
2023-01-23T15:46:29.827Z,284.90
2023-01-23T15:48:57.588Z,334.50
2023-01-23T15:51:25.313Z,251.20
2023-01-23T15:53:52.962Z,271.50
2023-01-23T15:56:32.016Z,299.30
2023-01-23T15:59:02.490Z,333.70
2023-01-23T16:01:30.161Z,294.00
2023-01-23T16:04:00.905Z,319.60
2023-01-23T16:06:28.994Z,368.00
2023-01-23T16:09:05.259Z,299.30
2023-01-23T16:11:35.536Z,288.70
2023-01-23T16:14:03.642Z,228.00
2023-01-23T16:16:31.703Z,221.80
2023-01-23T16:18:59.656Z,291.50
2023-01-23T16:21:29.906Z,283.60
2023-01-23T16:23:58.643Z,294.80
2023-01-23T16:26:27.838Z,262.50
2023-01-23T16:29:12.111Z,286.60
2023-01-23T16:31:41.373Z,247.80
2023-01-23T16:34:09.268Z,273.70
2023-01-23T16:36:37.936Z,289.80
2023-01-23T16:39:06.280Z,341.70
2023-01-23T16:41:34.294Z,271.60
2023-01-23T16:44:02.039Z,225.80
2023-01-23T16:46:29.885Z,224.30
2023-01-23T16:48:57.913Z,264.10
2023-01-23T16:51:25.878Z,273.60
2023-01-23T16:53:56.320Z,193.20
2023-01-23T16:56:35.555Z,213.30
2023-01-23T16:59:05.569Z,240.30
2023-01-23T17:01:37.656Z,253.20
2023-01-23T17:04:05.799Z,277.40
2023-01-23T17:06:33.716Z,237.50
2023-01-23T17:09:01.735Z,244.20
2023-01-23T17:11:35.533Z,225.70
2023-01-23T17:14:09.678Z,253.30
2023-01-23T17:16:37.950Z,223.20
2023-01-23T17:19:15.591Z,245.80
2023-01-23T17:21:43.564Z,229.20
2023-01-23T17:24:16.595Z,286.10
2023-01-23T17:26:44.683Z,269.60
2023-01-23T17:29:12.783Z,206.50
2023-01-23T17:31:41.140Z,192.60
2023-01-23T17:34:19.328Z,213.20
2023-01-23T17:36:47.506Z,195.90
2023-01-23T17:39:15.727Z,232.90
2023-01-23T17:41:43.647Z,229.60
2023-01-23T17:44:11.329Z,224.40
2023-01-23T17:46:39.700Z,214.80
2023-01-23T17:49:28.850Z,207.70
2023-01-23T17:51:58.546Z,199.20
2023-01-23T17:54:29.557Z,199.80
2023-01-23T17:56:57.186Z,254.70
2023-01-23T17:59:24.862Z,231.70
2023-01-23T18:01:52.689Z,180.10
2023-01-23T18:04:21.996Z,200.20
2023-01-23T18:06:50.484Z,215.70
2023-01-23T18:09:19.030Z,219.10
2023-01-23T18:11:52.161Z,205.30
2023-01-23T18:14:43.895Z,219.70
2023-01-23T18:17:16.311Z,198.80
2023-01-23T18:19:44.234Z,188.10
2023-01-23T18:22:12.429Z,185.90
2023-01-23T18:24:40.307Z,189.50
2023-01-23T18:27:24.502Z,182.30
2023-01-23T18:30:30.878Z,188.40
2023-01-23T18:33:14.037Z,170.20
2023-01-23T18:35:57.059Z,162.20
2023-01-23T18:39:19.572Z,186.10
2023-01-23T18:42:20.573Z,181.90
2023-01-23T18:44:55.913Z,164.60
2023-01-23T18:47:25.444Z,203.30
2023-01-23T18:49:53.527Z,207.60
2023-01-23T18:52:26.991Z,198.40
2023-01-23T18:55:32.657Z,184.40
2023-01-23T18:58:17.466Z,158.80
2023-01-23T19:01:26.857Z,197.90
2023-01-23T19:03:55.258Z,186.30
2023-01-23T19:06:25.063Z,195.20
2023-01-23T19:08:54.236Z,249.60
2023-01-23T19:11:27.314Z,292.90
2023-01-23T19:14:01.472Z,285.90
2023-01-23T19:16:31.421Z,222.20
2023-01-23T19:19:16.886Z,196.00
2023-01-23T19:21:46.977Z,183.50
2023-01-23T19:24:18.703Z,270.10
2023-01-23T19:26:46.891Z,256.90
2023-01-23T19:29:22.009Z,235.00
2023-01-23T19:32:06.873Z,256.90
2023-01-23T19:34:35.221Z,250.40
2023-01-23T19:37:04.026Z,276.10
2023-01-23T19:39:32.112Z,238.00
2023-01-23T19:41:59.957Z,234.80
2023-01-23T19:44:30.031Z,242.10
2023-01-23T19:46:57.786Z,188.50
2023-01-23T19:49:25.557Z,197.50
2023-01-23T19:51:53.368Z,287.80
2023-01-23T19:54:23.833Z,223.10
2023-01-23T19:56:52.219Z,198.30
2023-01-23T19:59:20.907Z,202.80
2023-01-23T20:01:51.001Z,290.00
2023-01-23T20:04:21.122Z,273.00
2023-01-23T20:06:51.485Z,277.00
2023-01-23T20:09:19.866Z,199.30
2023-01-23T20:11:47.713Z,310.10
2023-01-23T20:14:15.785Z,382.10
2023-01-23T20:16:43.817Z,239.70
2023-01-23T20:19:16.308Z,359.30
2023-01-23T20:21:45.515Z,355.20
2023-01-23T20:24:14.659Z,320.90
2023-01-23T20:26:42.460Z,244.60
2023-01-23T20:29:11.073Z,326.90
2023-01-23T20:31:39.022Z,236.00
2023-01-23T20:34:07.373Z,328.70
2023-01-23T20:36:35.341Z,290.80
2023-01-23T20:39:04.756Z,255.80
2023-01-23T20:41:32.470Z,340.30
2023-01-23T20:44:00.893Z,229.50
2023-01-23T20:46:28.588Z,303.50
2023-01-23T20:48:56.329Z,352.40
2023-01-23T20:51:24.192Z,346.50
2023-01-23T20:53:51.856Z,379.20
2023-01-23T20:56:27.313Z,412.30
2023-01-23T20:59:14.293Z,372.40
2023-01-23T21:02:01.273Z,337.20
2023-01-23T21:04:31.054Z,230.50
2023-01-23T21:06:59.820Z,375.10
2023-01-23T21:09:27.626Z,339.10
2023-01-23T21:11:55.429Z,401.00
2023-01-23T21:14:23.637Z,312.20
2023-01-23T21:16:51.739Z,303.70
2023-01-23T21:19:19.596Z,304.10
2023-01-23T21:21:47.392Z,414.70
2023-01-23T21:24:15.211Z,434.90
2023-01-23T21:26:43.815Z,367.10
2023-01-23T21:29:11.495Z,280.40
2023-01-23T21:31:39.610Z,340.10
2023-01-23T21:34:10.048Z,359.30
2023-01-23T21:36:38.495Z,362.50
2023-01-23T21:39:08.604Z,523.40
2023-01-23T21:41:37.119Z,357.10
2023-01-23T21:44:04.898Z,427.30
2023-01-23T21:46:32.690Z,440.20
2023-01-23T21:49:00.531Z,299.00
2023-01-23T21:51:28.349Z,315.90
2023-01-23T21:53:56.012Z,393.20
2023-01-23T21:56:24.550Z,294.30
2023-01-23T21:58:52.944Z,364.50
2023-01-23T22:01:32.494Z,316.60
2023-01-23T22:04:16.564Z,383.30
2023-01-23T22:06:45.249Z,352.40
2023-01-23T22:09:16.046Z,399.10
2023-01-23T22:11:44.930Z,349.30
2023-01-23T22:14:12.693Z,367.90
2023-01-23T22:16:49.776Z,347.60
2023-01-23T22:19:23.348Z,427.90
2023-01-23T22:21:55.522Z,356.40
2023-01-23T22:24:23.400Z,411.20
2023-01-23T22:26:51.495Z,411.70
2023-01-23T22:29:19.208Z,312.90
2023-01-23T22:31:46.937Z,327.10
2023-01-23T22:34:14.690Z,351.50
2023-01-23T22:36:42.377Z,406.40
2023-01-23T22:39:12.007Z,458.00
2023-01-23T22:41:39.647Z,367.60
2023-01-23T22:44:07.343Z,390.30
2023-01-23T22:46:35.063Z,422.70
2023-01-23T22:49:02.703Z,466.00
2023-01-23T22:51:30.805Z,415.60
2023-01-23T22:53:58.837Z,337.20
2023-01-23T22:56:27.366Z,319.80
2023-01-23T22:58:55.828Z,345.90
2023-01-23T23:01:24.310Z,355.50
2023-01-23T23:03:52.154Z,405.00
2023-01-23T23:06:20.085Z,398.80
2023-01-23T23:08:48.460Z,322.00
2023-01-23T23:11:21.855Z,401.60
2023-01-23T23:13:50.215Z,351.20
2023-01-23T23:16:23.745Z,309.90
2023-01-23T23:18:53.842Z,355.80
2023-01-23T23:21:24.477Z,291.90
2023-01-23T23:23:57.176Z,309.90
2023-01-23T23:26:26.671Z,333.80
2023-01-23T23:28:54.972Z,330.10
2023-01-23T23:31:22.840Z,361.00
2023-01-23T23:33:51.231Z,327.00
2023-01-23T23:36:18.975Z,311.60
2023-01-23T23:38:46.680Z,278.40
2023-01-23T23:41:15.662Z,316.10
2023-01-23T23:43:44.181Z,310.80
2023-01-23T23:46:13.095Z,320.60
2023-01-23T23:48:40.992Z,326.90
2023-01-23T23:51:11.561Z,293.90
2023-01-23T23:53:39.664Z,274.10
2023-01-23T23:56:07.998Z,422.70
2023-01-23T23:58:36.499Z,385.70
